createdAt,value
2023-02-15T00:00:55.232Z,12.68
2023-02-15T00:03:22.563Z,12.05
2023-02-15T00:05:48.948Z,12.18
2023-02-15T00:08:15.402Z,11.88
2023-02-15T00:10:41.921Z,12.05
2023-02-15T00:13:08.328Z,12.00
2023-02-15T00:15:34.666Z,11.32
2023-02-15T00:18:01.008Z,12.45
2023-02-15T00:20:27.414Z,12.80
2023-02-15T00:22:54.465Z,12.27
2023-02-15T00:25:20.828Z,12.52
2023-02-15T00:27:47.367Z,13.05
2023-02-15T00:30:14.058Z,12.55
2023-02-15T00:32:40.453Z,13.68
2023-02-15T00:35:07.415Z,11.57
2023-02-15T00:37:33.939Z,11.80
2023-02-15T00:40:00.473Z,11.85
2023-02-15T00:42:26.960Z,11.73
2023-02-15T00:44:53.298Z,11.15
2023-02-15T00:47:19.821Z,11.93
2023-02-15T00:49:46.188Z,10.90
2023-02-15T00:52:12.553Z,11.18
2023-02-15T00:54:39.071Z,10.23
2023-02-15T00:57:05.634Z,11.18
2023-02-15T00:59:31.993Z,11.27
2023-02-15T01:01:58.362Z,11.95
2023-02-15T01:04:24.883Z,11.65
2023-02-15T01:06:51.270Z,13.90
2023-02-15T01:09:17.804Z,13.02
2023-02-15T01:11:44.218Z,12.75
2023-02-15T01:14:10.612Z,12.77
2023-02-15T01:16:37.161Z,12.95
2023-02-15T01:19:04.902Z,12.30
2023-02-15T01:21:31.423Z,12.70
2023-02-15T01:23:57.819Z,12.32
2023-02-15T01:26:24.547Z,11.60
2023-02-15T01:28:51.065Z,11.13
2023-02-15T01:31:20.620Z,11.85
2023-02-15T01:33:48.285Z,12.70
2023-02-15T01:36:15.376Z,13.10
2023-02-15T01:38:41.867Z,11.40
2023-02-15T01:41:08.264Z,14.05
2023-02-15T01:43:43.768Z,13.98
2023-02-15T01:46:13.826Z,13.65
2023-02-15T01:48:49.592Z,14.57
2023-02-15T01:51:21.323Z,14.32
2023-02-15T01:53:53.212Z,12.32
2023-02-15T01:56:24.310Z,13.23
2023-02-15T01:58:55.051Z,11.68
2023-02-15T02:01:22.463Z,12.65
2023-02-15T02:04:07.139Z,13.30
2023-02-15T02:06:36.651Z,13.82
2023-02-15T02:09:03.788Z,13.43
2023-02-15T02:11:30.428Z,14.10
2023-02-15T02:13:57.920Z,12.95
2023-02-15T02:16:43.261Z,12.07
2023-02-15T02:19:43.554Z,13.32
2023-02-15T02:22:13.072Z,13.02
2023-02-15T02:24:51.607Z,12.63
2023-02-15T02:27:33.627Z,13.75
2023-02-15T02:30:28.386Z,11.82
2023-02-15T02:36:03.336Z,11.98
2023-02-15T02:38:36.958Z,11.77
2023-02-15T02:41:21.671Z,12.63
2023-02-15T02:44:00.562Z,13.10
2023-02-15T02:46:47.086Z,13.20
2023-02-15T02:49:13.572Z,12.60
2023-02-15T02:51:39.980Z,13.73
2023-02-15T02:54:07.842Z,13.05
2023-02-15T02:56:45.907Z,14.20
2023-02-15T02:59:19.252Z,13.23
2023-02-15T03:01:55.848Z,13.63
2023-02-15T03:04:28.519Z,13.43
2023-02-15T03:07:10.876Z,13.45
2023-02-15T03:09:42.017Z,12.45
2023-02-15T03:12:13.538Z,12.60
2023-02-15T03:14:42.165Z,12.45
2023-02-15T03:17:11.537Z,12.68
2023-02-15T03:19:39.633Z,10.95
2023-02-15T03:22:16.275Z,13.23
2023-02-15T03:24:48.737Z,13.25
2023-02-15T03:27:23.399Z,11.98
2023-02-15T03:29:56.236Z,12.00
2023-02-15T03:32:24.799Z,13.02
2023-02-15T03:34:51.622Z,12.65
2023-02-15T03:37:38.778Z,12.80
2023-02-15T03:40:23.803Z,13.30
2023-02-15T03:42:59.771Z,11.95
2023-02-15T03:45:31.678Z,12.43
2023-02-15T03:48:01.077Z,12.23
2023-02-15T03:50:30.888Z,11.90
2023-02-15T03:53:00.640Z,10.82
2023-02-15T03:55:28.497Z,13.15
2023-02-15T03:57:54.866Z,12.05
2023-02-15T04:00:25.750Z,13.13
2023-02-15T04:03:15.498Z,12.88
2023-02-15T04:05:43.432Z,12.77
2023-02-15T04:08:11.230Z,11.80
2023-02-15T04:10:37.783Z,12.30
2023-02-15T04:13:04.305Z,12.05
2023-02-15T04:15:30.612Z,12.45
2023-02-15T04:17:57.129Z,11.70
2023-02-15T04:20:23.499Z,12.48
2023-02-15T04:22:49.829Z,13.82
2023-02-15T04:25:16.242Z,11.25
2023-02-15T04:27:51.764Z,12.07
2023-02-15T04:30:21.125Z,12.20
2023-02-15T04:32:48.702Z,11.95
2023-02-15T04:35:15.638Z,13.50
2023-02-15T04:37:43.358Z,11.68
2023-02-15T04:40:14.454Z,12.20
2023-02-15T04:42:40.899Z,11.60
2023-02-15T04:45:07.660Z,11.98
2023-02-15T04:47:34.345Z,12.00
2023-02-15T04:50:01.000Z,11.60
2023-02-15T04:52:27.467Z,12.55
2023-02-15T04:54:53.906Z,12.93
2023-02-15T04:57:20.309Z,12.05
2023-02-15T04:59:46.740Z,12.52
2023-02-15T05:02:13.484Z,13.10
2023-02-15T05:04:39.899Z,12.82
2023-02-15T05:07:07.542Z,11.30
2023-02-15T05:09:33.937Z,11.80
2023-02-15T05:12:00.480Z,13.30
2023-02-15T05:14:26.962Z,12.82
2023-02-15T05:16:55.141Z,12.63
2023-02-15T05:19:21.700Z,12.45
2023-02-15T05:21:49.072Z,13.90
2023-02-15T05:24:15.456Z,12.95
2023-02-15T05:26:41.928Z,13.35
2023-02-15T05:29:08.580Z,11.88
2023-02-15T05:31:35.943Z,11.85
2023-02-15T05:34:02.450Z,12.35
2023-02-15T05:36:30.033Z,11.63
2023-02-15T05:38:57.074Z,12.75
2023-02-15T05:41:23.617Z,12.45
2023-02-15T05:43:49.996Z,12.35
2023-02-15T05:46:16.761Z,11.85
2023-02-15T05:48:43.356Z,12.23
2023-02-15T05:51:13.094Z,11.50
2023-02-15T05:53:40.846Z,11.50
2023-02-15T05:56:10.364Z,12.95
2023-02-15T05:58:39.615Z,11.80
2023-02-15T06:01:11.017Z,11.88
2023-02-15T06:03:37.596Z,11.93
2023-02-15T06:06:04.546Z,11.77
2023-02-15T06:08:32.205Z,11.50
2023-02-15T06:10:58.574Z,12.13
2023-02-15T06:13:25.179Z,11.88
2023-02-15T06:15:51.894Z,12.40
2023-02-15T06:18:18.497Z,12.48
2023-02-15T06:20:48.454Z,11.45
2023-02-15T06:23:15.576Z,11.55
2023-02-15T06:25:42.402Z,11.40
2023-02-15T06:28:09.045Z,12.60
2023-02-15T06:30:37.023Z,11.40
2023-02-15T06:33:03.581Z,11.65
2023-02-15T06:35:29.934Z,11.52
2023-02-15T06:37:56.570Z,11.65
2023-02-15T06:40:22.925Z,12.55
2023-02-15T06:42:49.403Z,11.73
2023-02-15T06:45:15.987Z,12.05
2023-02-15T06:47:42.605Z,11.77
2023-02-15T06:50:12.728Z,13.85
2023-02-15T06:52:39.308Z,13.15
2023-02-15T06:55:06.259Z,14.27
2023-02-15T06:57:32.761Z,13.32
2023-02-15T06:59:59.080Z,12.85
2023-02-15T07:02:25.701Z,12.68
2023-02-15T07:04:52.415Z,13.63
2023-02-15T07:07:19.178Z,13.55
2023-02-15T07:09:45.603Z,13.77
2023-02-15T07:12:11.944Z,12.82
2023-02-15T07:14:38.285Z,14.63
2023-02-15T07:17:05.234Z,13.25
2023-02-15T07:19:31.707Z,13.13
2023-02-15T07:21:58.198Z,12.98
2023-02-15T07:24:25.055Z,14.88
2023-02-15T07:26:51.452Z,12.23
2023-02-15T07:29:17.877Z,12.85
2023-02-15T07:31:47.074Z,14.30
2023-02-15T07:34:13.512Z,13.45
2023-02-15T07:36:39.854Z,12.98
2023-02-15T07:39:06.529Z,12.77
2023-02-15T07:41:33.123Z,13.85
2023-02-15T07:43:59.503Z,13.60
2023-02-15T07:46:25.953Z,13.43
2023-02-15T07:48:52.337Z,13.50
2023-02-15T07:51:18.757Z,13.52
2023-02-15T07:56:20.293Z,12.27
2023-02-15T07:58:46.913Z,13.55
2023-02-15T08:01:16.297Z,14.68
2023-02-15T08:03:42.785Z,14.63
2023-02-15T08:06:09.194Z,15.15
2023-02-15T08:08:35.674Z,14.68
2023-02-15T08:11:18.308Z,15.40
2023-02-15T08:13:49.912Z,16.45
2023-02-15T08:16:16.339Z,14.77
2023-02-15T08:18:42.774Z,17.58
2023-02-15T08:21:09.248Z,16.20
2023-02-15T08:23:35.787Z,17.00
2023-02-15T08:26:03.654Z,15.00
2023-02-15T08:28:31.822Z,15.18
2023-02-15T08:31:11.665Z,16.58
2023-02-15T08:33:40.770Z,15.43
2023-02-15T08:36:10.292Z,17.08
2023-02-15T08:38:38.377Z,15.90
2023-02-15T08:41:14.275Z,16.17
2023-02-15T08:43:43.548Z,16.65
2023-02-15T08:46:12.118Z,16.27
2023-02-15T08:48:39.568Z,17.95
2023-02-15T08:51:08.157Z,16.58
2023-02-15T08:53:36.932Z,17.83
2023-02-15T08:56:03.608Z,17.58
2023-02-15T08:58:30.774Z,18.33
2023-02-15T09:00:58.540Z,17.50
2023-02-15T09:03:25.065Z,18.05
2023-02-15T09:05:51.581Z,20.27
2023-02-15T09:08:17.924Z,19.50
2023-02-15T09:10:44.506Z,18.15
2023-02-15T09:13:10.867Z,18.48
2023-02-15T09:15:37.318Z,17.85
2023-02-15T09:18:03.740Z,16.60
2023-02-15T09:20:30.223Z,18.48
2023-02-15T09:22:59.024Z,19.20
2023-02-15T09:25:26.834Z,17.63
2023-02-15T09:27:53.174Z,16.50
2023-02-15T09:30:20.809Z,17.48
2023-02-15T09:32:48.382Z,17.20
2023-02-15T09:35:15.146Z,17.27
2023-02-15T09:37:41.570Z,18.00
2023-02-15T09:40:08.435Z,17.02
2023-02-15T09:43:01.213Z,16.48
2023-02-15T09:45:39.355Z,15.65
2023-02-15T09:48:25.872Z,16.70
2023-02-15T09:51:28.097Z,18.05
2023-02-15T09:54:05.858Z,18.00
2023-02-15T09:56:46.063Z,17.58
2023-02-15T09:59:44.388Z,17.10
2023-02-15T10:02:44.862Z,17.65
2023-02-15T10:05:30.424Z,17.75
2023-02-15T10:08:29.403Z,15.00
2023-02-15T10:11:13.516Z,17.35
2023-02-15T10:14:01.371Z,15.98
2023-02-15T10:16:58.375Z,16.95
2023-02-15T10:19:41.145Z,17.75
2023-02-15T10:22:17.827Z,17.92
2023-02-15T10:25:06.716Z,17.95
2023-02-15T10:27:40.729Z,16.63
2023-02-15T10:30:14.020Z,17.73
2023-02-15T10:32:58.766Z,18.40
2023-02-15T10:35:31.143Z,17.75
2023-02-15T10:38:16.130Z,17.85
2023-02-15T10:41:01.214Z,17.48
2023-02-15T10:43:35.553Z,17.88
2023-02-15T10:46:14.183Z,15.10
2023-02-15T10:48:55.833Z,16.88
2023-02-15T10:51:31.352Z,15.10
2023-02-15T10:54:11.096Z,16.95
2023-02-15T10:56:45.108Z,17.20
2023-02-15T10:59:23.330Z,17.33
2023-02-15T11:02:08.222Z,17.23
2023-02-15T11:05:12.555Z,17.85
2023-02-15T11:07:46.762Z,17.58
2023-02-15T11:10:23.953Z,16.20
2023-02-15T11:12:51.245Z,16.67
2023-02-15T11:15:36.418Z,17.38
2023-02-15T11:18:06.974Z,18.67
2023-02-15T11:20:39.475Z,17.08
2023-02-15T11:23:14.098Z,16.70
2023-02-15T11:25:40.804Z,15.77
2023-02-15T11:28:24.710Z,17.25
2023-02-15T11:30:55.926Z,16.80
2023-02-15T11:33:28.127Z,16.40
2023-02-15T11:36:18.856Z,17.08
2023-02-15T11:38:48.294Z,16.70
2023-02-15T11:41:23.015Z,16.50
2023-02-15T11:43:57.014Z,15.38
2023-02-15T11:46:23.713Z,19.20
2023-02-15T11:48:50.586Z,17.63
2023-02-15T11:51:23.774Z,17.40
2023-02-15T11:53:51.590Z,17.85
2023-02-15T11:56:21.444Z,19.20
2023-02-15T11:59:00.970Z,17.63
2023-02-15T12:01:35.553Z,16.55
2023-02-15T12:04:11.566Z,17.33
2023-02-15T12:06:45.709Z,17.17
2023-02-15T12:09:35.996Z,19.13
2023-02-15T12:12:32.781Z,17.13
2023-02-15T12:15:01.538Z,17.33
2023-02-15T12:17:34.163Z,17.13
2023-02-15T12:20:30.145Z,16.92
2023-02-15T12:23:13.079Z,16.42
2023-02-15T12:25:49.810Z,17.83
2023-02-15T12:28:30.073Z,17.30
2023-02-15T12:30:58.127Z,18.98
2023-02-15T12:33:32.133Z,18.48
2023-02-15T12:36:02.812Z,19.20
2023-02-15T12:38:29.513Z,19.98
2023-02-15T12:41:27.033Z,18.63
2023-02-15T12:44:16.609Z,19.40
2023-02-15T12:46:43.218Z,20.75
2023-02-15T12:49:21.398Z,19.70
2023-02-15T12:51:59.974Z,19.27
2023-02-15T12:54:36.218Z,17.17
2023-02-15T12:59:49.956Z,18.77
2023-02-15T13:02:26.064Z,19.15
2023-02-15T13:04:54.581Z,20.83
2023-02-15T13:07:22.187Z,20.30
2023-02-15T13:09:49.213Z,20.05
2023-02-15T13:12:23.002Z,17.75
2023-02-15T13:14:51.639Z,18.52
2023-02-15T13:17:20.566Z,20.05
2023-02-15T13:19:59.040Z,20.23
2023-02-15T13:22:33.894Z,17.95
2023-02-15T13:25:05.618Z,20.70
2023-02-15T13:27:43.441Z,20.42
2023-02-15T13:30:42.474Z,18.67
2023-02-15T13:33:17.424Z,18.98
2023-02-15T13:35:47.167Z,19.65
2023-02-15T13:38:35.431Z,18.20
2023-02-15T13:41:16.073Z,21.38
2023-02-15T13:44:07.135Z,20.45
2023-02-15T13:46:58.576Z,18.05
2023-02-15T13:49:48.658Z,18.95
2023-02-15T13:52:25.672Z,18.83
2023-02-15T13:55:21.719Z,19.40
2023-02-15T13:58:10.762Z,18.50
2023-02-15T14:01:03.750Z,17.20
2023-02-15T14:03:52.145Z,18.60
2023-02-15T14:09:03.005Z,19.45
2023-02-15T14:11:53.934Z,21.17
2023-02-15T14:14:35.442Z,18.75
2023-02-15T14:17:17.339Z,18.52
2023-02-15T14:20:02.349Z,19.85
2023-02-15T14:22:28.687Z,18.98
2023-02-15T14:25:26.491Z,20.38
2023-02-15T14:28:34.734Z,19.88
2023-02-15T14:31:05.513Z,19.48
2023-02-15T14:33:42.196Z,20.15
2023-02-15T14:38:57.718Z,18.70
2023-02-15T14:41:38.293Z,20.48
2023-02-15T14:44:13.427Z,19.33
2023-02-15T14:46:51.403Z,17.45
2023-02-15T14:49:52.148Z,20.33
2023-02-15T14:52:18.723Z,19.27
2023-02-15T14:54:44.983Z,18.65
2023-02-15T14:57:12.263Z,18.65
2023-02-15T14:59:50.991Z,17.85
2023-02-15T15:02:36.118Z,19.00
2023-02-15T15:05:27.801Z,19.10
2023-02-15T15:08:01.500Z,17.27
2023-02-15T15:10:37.115Z,17.35
2023-02-15T15:13:31.682Z,18.08
2023-02-15T15:16:40.962Z,18.52
2023-02-15T15:19:11.573Z,16.77
2023-02-15T15:24:38.806Z,16.75
2023-02-15T15:27:39.337Z,19.35
2023-02-15T15:30:15.200Z,19.52
2023-02-15T15:32:56.377Z,17.15
2023-02-15T15:36:13.722Z,17.23
2023-02-15T15:38:56.555Z,17.27
2023-02-15T15:41:47.951Z,17.80
2023-02-15T15:44:53.245Z,17.42
2023-02-15T15:47:34.612Z,17.48
2023-02-15T15:50:01.416Z,20.08
2023-02-15T15:52:29.792Z,18.20
2023-02-15T15:55:02.898Z,18.42
2023-02-15T15:57:34.021Z,17.92
2023-02-15T16:00:00.541Z,18.80
2023-02-15T16:02:28.114Z,18.05
2023-02-15T16:04:54.975Z,18.73
2023-02-15T16:07:26.163Z,19.33
2023-02-15T16:09:56.277Z,20.17
2023-02-15T16:12:23.935Z,19.15
2023-02-15T16:14:50.480Z,19.50
2023-02-15T16:17:31.751Z,20.42
2023-02-15T16:20:30.091Z,19.98
2023-02-15T16:23:27.811Z,20.77
2023-02-15T16:26:06.408Z,19.85
2023-02-15T16:28:32.921Z,19.15
2023-02-15T16:31:14.376Z,18.30
2023-02-15T16:33:42.579Z,19.75
2023-02-15T16:36:29.002Z,19.60
2023-02-15T16:39:07.022Z,18.83
2023-02-15T16:41:33.663Z,19.75
2023-02-15T16:44:17.608Z,19.13
2023-02-15T16:46:49.186Z,18.30
2023-02-15T16:49:19.900Z,19.23
2023-02-15T16:51:57.100Z,20.30
2023-02-15T16:54:29.248Z,18.63
2023-02-15T16:56:56.692Z,17.58
2023-02-15T16:59:34.779Z,20.60
2023-02-15T17:02:05.426Z,19.00
2023-02-15T17:04:33.173Z,19.58
2023-02-15T17:07:02.634Z,18.65
2023-02-15T17:09:28.977Z,19.98
2023-02-15T17:11:56.919Z,29.83
2023-02-15T17:14:29.819Z,21.88
2023-02-15T17:17:15.136Z,21.40
2023-02-15T17:19:52.617Z,18.60
2023-02-15T17:22:22.871Z,18.50
2023-02-15T17:24:57.810Z,16.92
2023-02-15T17:27:31.723Z,20.50
2023-02-15T17:30:02.002Z,23.27
2023-02-15T17:35:08.241Z,17.85
2023-02-15T17:37:34.814Z,18.35
2023-02-15T17:40:06.328Z,18.65
2023-02-15T17:42:32.789Z,18.13
2023-02-15T17:45:01.526Z,22.63
2023-02-15T17:47:28.965Z,22.13
2023-02-15T17:49:55.600Z,20.85
2023-02-15T17:52:23.103Z,33.00
2023-02-15T17:54:50.095Z,23.20
2023-02-15T17:57:18.106Z,22.35
2023-02-15T17:59:44.748Z,19.88
2023-02-15T18:02:12.263Z,20.05
2023-02-15T18:04:39.790Z,19.73
2023-02-15T18:07:09.875Z,22.35
2023-02-15T18:09:37.893Z,20.40
2023-02-15T18:12:22.369Z,19.17
2023-02-15T18:14:50.066Z,20.38
2023-02-15T18:17:17.728Z,22.08
2023-02-15T18:19:46.333Z,25.08
2023-02-15T18:22:18.349Z,23.98
2023-02-15T18:24:45.642Z,25.25
2023-02-15T18:27:14.001Z,23.83
2023-02-15T18:29:41.189Z,24.40
2023-02-15T18:32:13.963Z,22.88
2023-02-15T18:34:42.963Z,24.48
2023-02-15T18:37:15.648Z,23.45
2023-02-15T18:39:50.733Z,22.88
2023-02-15T18:42:35.759Z,23.42
2023-02-15T18:45:14.298Z,22.75
2023-02-15T18:47:40.741Z,25.98
2023-02-15T18:50:08.058Z,29.55
2023-02-15T18:52:38.018Z,30.80
2023-02-15T18:55:14.794Z,28.48
2023-02-15T18:57:44.148Z,27.33
2023-02-15T19:00:19.292Z,24.77
2023-02-15T19:02:45.876Z,24.23
2023-02-15T19:05:13.259Z,25.55
2023-02-15T19:07:41.237Z,22.23
2023-02-15T19:10:13.473Z,22.58
2023-02-15T19:12:40.059Z,23.25
2023-02-15T19:15:09.896Z,20.67
2023-02-15T19:17:36.529Z,21.00
2023-02-15T19:20:03.062Z,22.27
2023-02-15T19:22:31.393Z,22.77
2023-02-15T19:25:00.845Z,21.65
2023-02-15T19:27:30.629Z,20.60
2023-02-15T19:30:01.705Z,21.73
2023-02-15T19:32:28.520Z,23.40
2023-02-15T19:34:56.871Z,22.77
2023-02-15T19:37:28.675Z,21.58
2023-02-15T19:39:55.127Z,23.27
2023-02-15T19:42:31.022Z,26.13
2023-02-15T19:44:58.902Z,21.52
2023-02-15T19:47:27.864Z,24.13
2023-02-15T19:49:54.363Z,25.80
2023-02-15T19:52:22.408Z,25.35
2023-02-15T19:54:49.336Z,24.17
2023-02-15T19:57:15.942Z,34.70
2023-02-15T19:59:42.449Z,24.15
2023-02-15T20:02:16.565Z,24.60
2023-02-15T20:04:43.244Z,24.67
2023-02-15T20:07:22.259Z,21.15
2023-02-15T20:09:48.748Z,23.60
2023-02-15T20:12:26.402Z,21.42
2023-02-15T20:14:53.218Z,23.60
2023-02-15T20:17:19.762Z,21.80
2023-02-15T20:19:46.519Z,23.23
2023-02-15T20:22:26.225Z,22.23
2023-02-15T20:24:53.891Z,20.88
2023-02-15T20:27:20.492Z,21.52
2023-02-15T20:29:46.891Z,21.08
2023-02-15T20:32:13.519Z,21.40
2023-02-15T20:34:40.157Z,19.55
2023-02-15T20:37:20.414Z,21.73
2023-02-15T20:39:46.776Z,19.85
2023-02-15T20:42:19.369Z,20.02
2023-02-15T20:44:45.803Z,20.02
2023-02-15T20:47:12.174Z,19.10
2023-02-15T20:49:38.739Z,21.45
2023-02-15T20:52:18.571Z,20.92
2023-02-15T20:54:45.185Z,22.67
2023-02-15T20:57:12.846Z,20.35
2023-02-15T20:59:40.536Z,21.23
2023-02-15T21:02:21.409Z,20.27
2023-02-15T21:04:47.764Z,19.25
2023-02-15T21:07:19.110Z,20.95
2023-02-15T21:09:46.623Z,21.27
2023-02-15T21:12:18.747Z,23.52
2023-02-15T21:14:45.698Z,22.15
2023-02-15T21:17:16.740Z,22.33
2023-02-15T21:19:43.926Z,19.55
2023-02-15T21:22:13.430Z,20.17
2023-02-15T21:24:47.726Z,20.65
2023-02-15T21:27:14.784Z,18.63
2023-02-15T21:29:41.182Z,20.63
2023-02-15T21:32:09.654Z,21.42
2023-02-15T21:34:36.163Z,20.10
2023-02-15T21:37:02.716Z,21.65
2023-02-15T21:39:35.001Z,20.05
2023-02-15T21:42:01.389Z,21.95
2023-02-15T21:44:27.716Z,21.10
2023-02-15T21:46:54.207Z,20.08
2023-02-15T21:49:20.627Z,20.50
2023-02-15T21:51:46.954Z,18.90
2023-02-15T21:54:14.127Z,21.33
2023-02-15T21:56:40.559Z,20.45
2023-02-15T21:59:15.537Z,21.85
2023-02-15T22:01:46.942Z,20.40
2023-02-15T22:04:22.550Z,20.80
2023-02-15T22:06:48.921Z,21.50
2023-02-15T22:09:18.426Z,23.40
2023-02-15T22:11:45.421Z,22.13
2023-02-15T22:14:39.949Z,22.30
2023-02-15T22:19:48.262Z,18.65
2023-02-15T22:22:15.391Z,17.95
2023-02-15T22:24:42.764Z,21.38
2023-02-15T22:27:41.264Z,19.63
2023-02-15T22:30:25.538Z,20.90
2023-02-15T22:32:57.010Z,20.52
2023-02-15T22:35:34.672Z,21.48
2023-02-15T22:38:01.373Z,20.98
2023-02-15T22:40:33.292Z,21.60
2023-02-15T22:43:02.305Z,18.98
2023-02-15T22:45:29.092Z,22.20
2023-02-15T22:47:58.578Z,22.33
2023-02-15T22:50:29.293Z,21.48
2023-02-15T22:55:25.608Z,20.92
2023-02-15T22:57:55.536Z,19.55
2023-02-15T23:00:26.362Z,20.42
2023-02-15T23:02:53.843Z,20.75
2023-02-15T23:05:27.735Z,23.33
2023-02-15T23:07:55.006Z,20.30
2023-02-15T23:10:23.967Z,22.23
2023-02-15T23:12:53.672Z,22.65
2023-02-15T23:15:20.044Z,22.58
2023-02-15T23:17:46.460Z,23.50
2023-02-15T23:20:14.690Z,21.58
2023-02-15T23:22:42.705Z,18.92
2023-02-15T23:25:11.694Z,23.50
2023-02-15T23:27:38.099Z,22.13
2023-02-15T23:30:11.918Z,21.88
2023-02-15T23:32:38.910Z,22.35
2023-02-15T23:35:16.462Z,21.98
2023-02-15T23:37:43.203Z,22.08
2023-02-15T23:40:15.816Z,23.80
2023-02-15T23:42:42.457Z,18.75
2023-02-15T23:45:21.856Z,22.48
2023-02-15T23:47:48.692Z,21.33
2023-02-15T23:50:22.724Z,20.15
2023-02-15T23:52:53.189Z,22.25
2023-02-15T23:55:20.287Z,20.95
2023-02-15T23:57:47.410Z,23.70
